This is the latest recevied weather packets stored in our database for station/object KD9WYV. If no packets are shown the sender has not sent any weather packets the latest 1 day(s).
| Time | Temp. | Humidity | Pressure | Rain* | Wind** | Luminosity | Snow |
|---|---|---|---|---|---|---|---|
| 1778004816 | 11.67° C | 94% | 1008.9 hPa | 3.05 mm | 1.34 m/s, 91° | 110 W/m² | - |
| 1778004513 | 11.67° C | 94% | 1008.9 hPa | 4.83 mm | 0.89 m/s, 65° | 106 W/m² | - |
| 1778004210 | 12.22° C | 94% | 1008.9 hPa | 4.83 mm | 0 m/s | 81 W/m² | - |
| 1778003906 | 12.22° C | 94% | 1009 hPa | 4.83 mm | 0.45 m/s, 344° | 88 W/m² | - |
| 1778003603 | 11.67° C | 94% | 1009.1 hPa | 3.05 mm | 0 m/s | 100 W/m² | - |
| 1778003299 | 11.67° C | 94% | 1009.3 hPa | 3.05 mm | 0 m/s | 117 W/m² | - |
| 1778002997 | 11.67° C | 93% | 1009 hPa | 1.27 mm | 0.45 m/s, 350° | 147 W/m² | - |
| 1778002692 | 11.67° C | 93% | 1009.2 hPa | 0 mm | 0.89 m/s, 324° | 97 W/m² | - |
| 1778002389 | 11.67° C | 93% | 1009.2 hPa | 1.78 mm | 0.45 m/s, 327° | 126 W/m² | - |
| 1778002092 | 11.67° C | 93% | 1009.6 hPa | 1.78 mm | 0.45 m/s, 341° | 56 W/m² | - |
| 1778001784 | 11.67° C | 93% | 1009.4 hPa | 1.27 mm | 0.89 m/s, 337° | 61 W/m² | - |
| 1778001478 | 11.67° C | 93% | 1009.7 hPa | 1.27 mm | 0.89 m/s, 319° | 53 W/m² | - |
| 1778001175 | 11.67° C | 92% | 1009.3 hPa | 1.27 mm | 2.24 m/s, 7° | 94 W/m² | - |
| 1778000872 | 12.22° C | 92% | 1009.5 hPa | 0 mm | 1.79 m/s, 300° | 48 W/m² | - |
| 1778000569 | 12.22° C | 92% | 1009.4 hPa | 0 mm | 1.34 m/s, 349° | 45 W/m² | - |
| 1778000264 | 12.22° C | 91% | 1009.3 hPa | 0 mm | 1.34 m/s, 342° | 41 W/m² | - |
| 1777999960 | 12.78° C | 92% | 1009.8 hPa | 0 mm | 1.34 m/s, 11° | 35 W/m² | - |
| 1777999656 | 13.33° C | 92% | 1009.3 hPa | 0 mm | 0.89 m/s, 271° | 33 W/m² | - |
| 1777999353 | 14.44° C | 92% | 1009.3 hPa | 0 mm | 0.89 m/s, 308° | 30 W/m² | - |
| 1777999051 | 14.44° C | 93% | 1009.4 hPa | 0 mm | 1.34 m/s, 306° | 51 W/m² | - |
| 1777998750 | 14.44° C | 94% | 1009.3 hPa | 0 mm | 1.34 m/s, 224° | 69 W/m² | - |
| 1777998447 | 15° C | 94% | 1009.5 hPa | 1.78 mm | 0.89 m/s, 223° | 138 W/m² | - |
| 1777998144 | 14.44° C | 94% | 1009.5 hPa | 1.78 mm | 0.89 m/s, 298° | 99 W/m² | - |
| 1777997840 | 14.44° C | 94% | 1009.3 hPa | 1.78 mm | 0.89 m/s, 258° | 271 W/m² | - |
| 1777997538 | 14.44° C | 94% | 1009.4 hPa | 0 mm | 1.34 m/s, 301° | 196 W/m² | - |
* Rain latest hour (hover to see other rain measurements)
** Current wind speed in m/s (hover to see current wind gust speed)